sensor_id;sensor_type;location;lat;lon;timestamp;temperature;humidity
64111;DHT22;50401;48.188;11.566;2022-07-10T00:00:06;20.52;60.26
64111;DHT22;50401;48.188;11.566;2022-07-10T00:02:31;20.45;60.49
64111;DHT22;50401;48.188;11.566;2022-07-10T00:04:57;20.45;60.55
64111;DHT22;50401;48.188;11.566;2022-07-10T00:07:22;20.48;60.52
64111;DHT22;50401;48.188;11.566;2022-07-10T00:09:48;20.46;60.80
64111;DHT22;50401;48.188;11.566;2022-07-10T00:12:13;20.49;62.00
64111;DHT22;50401;48.188;11.566;2022-07-10T00:14:38;20.41;63.28
64111;DHT22;50401;48.188;11.566;2022-07-10T00:17:04;20.33;63.76
64111;DHT22;50401;48.188;11.566;2022-07-10T00:19:29;20.31;65.07
64111;DHT22;50401;48.188;11.566;2022-07-10T00:21:54;20.22;66.09
64111;DHT22;50401;48.188;11.566;2022-07-10T00:24:20;20.20;66.07
64111;DHT22;50401;48.188;11.566;2022-07-10T00:26:45;20.17;66.00
64111;DHT22;50401;48.188;11.566;2022-07-10T00:29:13;20.06;66.85
64111;DHT22;50401;48.188;11.566;2022-07-10T00:31:38;19.84;68.15
64111;DHT22;50401;48.188;11.566;2022-07-10T00:34:03;19.86;67.92
64111;DHT22;50401;48.188;11.566;2022-07-10T00:36:29;19.80;68.00
64111;DHT22;50401;48.188;11.566;2022-07-10T00:38:54;19.80;68.14
64111;DHT22;50401;48.188;11.566;2022-07-10T00:41:20;19.62;69.21
64111;DHT22;50401;48.188;11.566;2022-07-10T00:43:55;19.54;69.33
64111;DHT22;50401;48.188;11.566;2022-07-10T00:46:22;19.55;69.30
64111;DHT22;50401;48.188;11.566;2022-07-10T00:48:48;19.51;69.60
64111;DHT22;50401;48.188;11.566;2022-07-10T00:51:14;19.47;69.71
64111;DHT22;50401;48.188;11.566;2022-07-10T00:53:41;19.54;69.66
64111;DHT22;50401;48.188;11.566;2022-07-10T00:56:07;19.49;69.88
64111;DHT22;50401;48.188;11.566;2022-07-10T00:58:34;19.51;69.55
64111;DHT22;50401;48.188;11.566;2022-07-10T01:01:01;19.54;69.74
64111;DHT22;50401;48.188;11.566;2022-07-10T01:03:27;19.48;70.01
64111;DHT22;50401;48.188;11.566;2022-07-10T01:05:52;19.35;70.78
64111;DHT22;50401;48.188;11.566;2022-07-10T01:08:18;19.24;70.86
64111;DHT22;50401;48.188;11.566;2022-07-10T01:10:44;19.07;71.06
64111;DHT22;50401;48.188;11.566;2022-07-10T01:13:09;19.07;72.27
64111;DHT22;50401;48.188;11.566;2022-07-10T01:15:36;19.07;72.47
64111;DHT22;50401;48.188;11.566;2022-07-10T01:18:02;18.97;72.27
64111;DHT22;50401;48.188;11.566;2022-07-10T01:20:31;18.92;72.05
64111;DHT22;50401;48.188;11.566;2022-07-10T01:23:00;18.89;72.86
64111;DHT22;50401;48.188;11.566;2022-07-10T01:25:26;18.90;73.68
64111;DHT22;50401;48.188;11.566;2022-07-10T01:27:51;18.96;73.73
64111;DHT22;50401;48.188;11.566;2022-07-10T01:30:17;18.95;74.15
64111;DHT22;50401;48.188;11.566;2022-07-10T01:32:44;18.89;74.32
64111;DHT22;50401;48.188;11.566;2022-07-10T01:35:10;18.87;73.63
64111;DHT22;50401;48.188;11.566;2022-07-10T01:37:35;18.73;74.14
64111;DHT22;50401;48.188;11.566;2022-07-10T01:40:00;18.75;74.03
64111;DHT22;50401;48.188;11.566;2022-07-10T01:42:26;18.65;74.86
64111;DHT22;50401;48.188;11.566;2022-07-10T01:44:51;18.65;74.66
64111;DHT22;50401;48.188;11.566;2022-07-10T01:47:16;18.62;75.15
64111;DHT22;50401;48.188;11.566;2022-07-10T01:49:42;18.38;76.45
64111;DHT22;50401;48.188;11.566;2022-07-10T01:52:07;18.43;75.97
64111;DHT22;50401;48.188;11.566;2022-07-10T01:54:33;18.49;75.92
64111;DHT22;50401;48.188;11.566;2022-07-10T01:56:58;18.56;75.87
64111;DHT22;50401;48.188;11.566;2022-07-10T01:59:24;18.62;75.74
64111;DHT22;50401;48.188;11.566;2022-07-10T02:01:49;18.65;75.14
64111;DHT22;50401;48.188;11.566;2022-07-10T02:04:14;18.68;75.26
64111;DHT22;50401;48.188;11.566;2022-07-10T02:06:58;18.61;74.84
64111;DHT22;50401;48.188;11.566;2022-07-10T02:09:23;18.69;74.77
64111;DHT22;50401;48.188;11.566;2022-07-10T02:11:49;18.66;75.08
64111;DHT22;50401;48.188;11.566;2022-07-10T02:14:14;18.66;74.92
64111;DHT22;50401;48.188;11.566;2022-07-10T02:16:40;18.69;75.21
64111;DHT22;50401;48.188;11.566;2022-07-10T02:19:05;18.72;74.43
64111;DHT22;50401;48.188;11.566;2022-07-10T02:21:31;18.58;75.41
64111;DHT22;50401;48.188;11.566;2022-07-10T02:23:56;18.49;75.73
64111;DHT22;50401;48.188;11.566;2022-07-10T02:26:21;18.52;75.65
64111;DHT22;50401;48.188;11.566;2022-07-10T02:28:47;18.51;75.66
64111;DHT22;50401;48.188;11.566;2022-07-10T02:31:12;18.45;75.79
64111;DHT22;50401;48.188;11.566;2022-07-10T02:33:37;18.44;75.71
64111;DHT22;50401;48.188;11.566;2022-07-10T02:36:04;18.41;75.87
64111;DHT22;50401;48.188;11.566;2022-07-10T02:38:29;18.44;75.72
64111;DHT22;50401;48.188;11.566;2022-07-10T02:40:55;18.52;75.35
64111;DHT22;50401;48.188;11.566;2022-07-10T02:43:20;18.48;75.59
64111;DHT22;50401;48.188;11.566;2022-07-10T02:45:46;18.54;75.66
64111;DHT22;50401;48.188;11.566;2022-07-10T02:48:11;18.47;75.77
64111;DHT22;50401;48.188;11.566;2022-07-10T02:50:37;18.48;75.64
64111;DHT22;50401;48.188;11.566;2022-07-10T02:53:02;18.48;75.82
64111;DHT22;50401;48.188;11.566;2022-07-10T02:55:28;18.49;75.85
64111;DHT22;50401;48.188;11.566;2022-07-10T02:57:56;18.44;76.06
64111;DHT22;50401;48.188;11.566;2022-07-10T03:00:22;18.38;76.36
64111;DHT22;50401;48.188;11.566;2022-07-10T03:02:47;18.31;76.29
64111;DHT22;50401;48.188;11.566;2022-07-10T03:05:13;18.33;76.25
64111;DHT22;50401;48.188;11.566;2022-07-10T03:07:38;18.28;76.27
64111;DHT22;50401;48.188;11.566;2022-07-10T03:10:04;18.31;76.37
64111;DHT22;50401;48.188;11.566;2022-07-10T03:12:29;18.34;76.14
64111;DHT22;50401;48.188;11.566;2022-07-10T03:14:55;18.31;76.56
64111;DHT22;50401;48.188;11.566;2022-07-10T03:17:20;18.26;76.53
64111;DHT22;50401;48.188;11.566;2022-07-10T03:19:46;18.18;76.73
64111;DHT22;50401;48.188;11.566;2022-07-10T03:22:11;18.20;76.07
64111;DHT22;50401;48.188;11.566;2022-07-10T03:24:36;18.24;75.92
64111;DHT22;50401;48.188;11.566;2022-07-10T03:27:02;18.17;76.33
64111;DHT22;50401;48.188;11.566;2022-07-10T03:29:27;18.18;76.35
64111;DHT22;50401;48.188;11.566;2022-07-10T03:31:52;18.16;76.36
64111;DHT22;50401;48.188;11.566;2022-07-10T03:34:18;18.16;76.32
64111;DHT22;50401;48.188;11.566;2022-07-10T03:36:43;18.11;76.55
64111;DHT22;50401;48.188;11.566;2022-07-10T03:39:09;18.09;76.77
64111;DHT22;50401;48.188;11.566;2022-07-10T03:41:35;18.07;76.83
64111;DHT22;50401;48.188;11.566;2022-07-10T03:44:00;18.07;77.04
64111;DHT22;50401;48.188;11.566;2022-07-10T03:46:25;18.06;76.81
64111;DHT22;50401;48.188;11.566;2022-07-10T03:48:51;18.06;76.92
64111;DHT22;50401;48.188;11.566;2022-07-10T03:51:17;18.03;76.97
64111;DHT22;50401;48.188;11.566;2022-07-10T03:53:42;17.97;77.58
64111;DHT22;50401;48.188;11.566;2022-07-10T03:56:07;17.96;77.37
64111;DHT22;50401;48.188;11.566;2022-07-10T03:58:33;17.97;77.20
64111;DHT22;50401;48.188;11.566;2022-07-10T04:00:58;17.99;77.39
64111;DHT22;50401;48.188;11.566;2022-07-10T04:03:24;18.06;76.84
64111;DHT22;50401;48.188;11.566;2022-07-10T04:05:49;18.06;76.75
64111;DHT22;50401;48.188;11.566;2022-07-10T04:08:14;18.06;76.81
64111;DHT22;50401;48.188;11.566;2022-07-10T04:10:40;18.14;76.56
64111;DHT22;50401;48.188;11.566;2022-07-10T04:13:05;18.16;76.29
64111;DHT22;50401;48.188;11.566;2022-07-10T04:15:31;18.20;76.06
64111;DHT22;50401;48.188;11.566;2022-07-10T04:17:56;18.26;75.71
64111;DHT22;50401;48.188;11.566;2022-07-10T04:20:22;18.26;76.00
64111;DHT22;50401;48.188;11.566;2022-07-10T04:22:48;18.28;75.92
64111;DHT22;50401;48.188;11.566;2022-07-10T04:25:14;18.30;75.95
64111;DHT22;50401;48.188;11.566;2022-07-10T04:27:40;18.30;75.84
64111;DHT22;50401;48.188;11.566;2022-07-10T04:30:07;18.30;75.83
64111;DHT22;50401;48.188;11.566;2022-07-10T04:32:32;18.33;75.46
64111;DHT22;50401;48.188;11.566;2022-07-10T04:34:58;18.33;75.58
64111;DHT22;50401;48.188;11.566;2022-07-10T04:37:24;18.37;75.57
64111;DHT22;50401;48.188;11.566;2022-07-10T04:39:50;18.30;75.57
64111;DHT22;50401;48.188;11.566;2022-07-10T04:42:15;18.34;75.70
64111;DHT22;50401;48.188;11.566;2022-07-10T04:44:40;18.30;76.05
64111;DHT22;50401;48.188;11.566;2022-07-10T04:47:07;18.28;76.12
64111;DHT22;50401;48.188;11.566;2022-07-10T04:49:33;18.37;75.64
64111;DHT22;50401;48.188;11.566;2022-07-10T04:51:58;18.31;75.57
64111;DHT22;50401;48.188;11.566;2022-07-10T04:54:24;18.28;75.87
64111;DHT22;50401;48.188;11.566;2022-07-10T04:56:50;18.24;76.19
64111;DHT22;50401;48.188;11.566;2022-07-10T04:59:15;18.21;76.16
64111;DHT22;50401;48.188;11.566;2022-07-10T05:01:41;18.18;76.17
64111;DHT22;50401;48.188;11.566;2022-07-10T05:04:07;18.14;76.36
64111;DHT22;50401;48.188;11.566;2022-07-10T05:06:33;18.09;75.80
64111;DHT22;50401;48.188;11.566;2022-07-10T05:08:59;17.90;76.74
64111;DHT22;50401;48.188;11.566;2022-07-10T05:11:24;17.97;76.28
64111;DHT22;50401;48.188;11.566;2022-07-10T05:13:51;18.03;75.98
64111;DHT22;50401;48.188;11.566;2022-07-10T05:16:16;18.07;75.93
64111;DHT22;50401;48.188;11.566;2022-07-10T05:18:42;18.06;75.93
64111;DHT22;50401;48.188;11.566;2022-07-10T05:21:08;18.10;75.38
64111;DHT22;50401;48.188;11.566;2022-07-10T05:23:34;18.10;75.35
64111;DHT22;50401;48.188;11.566;2022-07-10T05:25:59;18.10;75.02
64111;DHT22;50401;48.188;11.566;2022-07-10T05:28:25;18.11;75.14
64111;DHT22;50401;48.188;11.566;2022-07-10T05:30:51;18.10;75.53
64111;DHT22;50401;48.188;11.566;2022-07-10T05:33:16;18.17;74.92
64111;DHT22;50401;48.188;11.566;2022-07-10T05:35:42;18.17;74.92
64111;DHT22;50401;48.188;11.566;2022-07-10T05:38:07;18.10;73.92
64111;DHT22;50401;48.188;11.566;2022-07-10T05:40:32;18.10;74.20
64111;DHT22;50401;48.188;11.566;2022-07-10T05:42:58;18.07;74.11
64111;DHT22;50401;48.188;11.566;2022-07-10T05:45:24;17.96;74.00
64111;DHT22;50401;48.188;11.566;2022-07-10T05:47:49;17.99;74.37
64111;DHT22;50401;48.188;11.566;2022-07-10T05:50:15;18.09;74.45
64111;DHT22;50401;48.188;11.566;2022-07-10T05:52:40;18.10;73.98
64111;DHT22;50401;48.188;11.566;2022-07-10T05:55:06;18.21;73.33
64111;DHT22;50401;48.188;11.566;2022-07-10T05:57:33;18.33;73.02
64111;DHT22;50401;48.188;11.566;2022-07-10T05:59:58;18.49;72.45
64111;DHT22;50401;48.188;11.566;2022-07-10T06:02:24;18.55;72.13
64111;DHT22;50401;48.188;11.566;2022-07-10T06:04:49;18.66;71.60
64111;DHT22;50401;48.188;11.566;2022-07-10T06:07:15;18.62;71.62
64111;DHT22;50401;48.188;11.566;2022-07-10T06:09:41;18.63;72.09
64111;DHT22;50401;48.188;11.566;2022-07-10T06:12:07;18.68;71.95
64111;DHT22;50401;48.188;11.566;2022-07-10T06:14:32;18.61;71.52
64111;DHT22;50401;48.188;11.566;2022-07-10T06:16:58;18.56;71.65
64111;DHT22;50401;48.188;11.566;2022-07-10T06:19:23;18.47;72.12
64111;DHT22;50401;48.188;11.566;2022-07-10T06:21:48;18.43;72.01
64111;DHT22;50401;48.188;11.566;2022-07-10T06:24:34;18.37;72.21
64111;DHT22;50401;48.188;11.566;2022-07-10T06:26:59;18.26;72.62
64111;DHT22;50401;48.188;11.566;2022-07-10T06:29:24;18.30;72.51
64111;DHT22;50401;48.188;11.566;2022-07-10T06:31:50;18.43;72.35
64111;DHT22;50401;48.188;11.566;2022-07-10T06:34:15;18.49;72.32
64111;DHT22;50401;48.188;11.566;2022-07-10T06:36:41;18.38;72.36
64111;DHT22;50401;48.188;11.566;2022-07-10T06:39:06;18.43;71.75
64111;DHT22;50401;48.188;11.566;2022-07-10T06:41:32;18.37;71.91
64111;DHT22;50401;48.188;11.566;2022-07-10T06:43:59;18.40;71.73
64111;DHT22;50401;48.188;11.566;2022-07-10T06:46:26;18.33;72.10
64111;DHT22;50401;48.188;11.566;2022-07-10T06:48:51;18.26;72.34
64111;DHT22;50401;48.188;11.566;2022-07-10T06:51:16;18.24;72.56
64111;DHT22;50401;48.188;11.566;2022-07-10T06:53:42;18.37;72.04
64111;DHT22;50401;48.188;11.566;2022-07-10T06:56:07;18.21;72.99
64111;DHT22;50401;48.188;11.566;2022-07-10T06:58:32;18.34;72.49
64111;DHT22;50401;48.188;11.566;2022-07-10T07:00:58;18.52;71.43
64111;DHT22;50401;48.188;11.566;2022-07-10T07:03:24;18.56;71.31
64111;DHT22;50401;48.188;11.566;2022-07-10T07:05:49;18.56;71.05
64111;DHT22;50401;48.188;11.566;2022-07-10T07:08:14;18.58;70.82
64111;DHT22;50401;48.188;11.566;2022-07-10T07:10:41;18.54;70.86
64111;DHT22;50401;48.188;11.566;2022-07-10T07:13:06;18.54;70.76
64111;DHT22;50401;48.188;11.566;2022-07-10T07:15:34;18.59;70.62
64111;DHT22;50401;48.188;11.566;2022-07-10T07:18:04;18.63;70.64
64111;DHT22;50401;48.188;11.566;2022-07-10T07:20:41;18.61;70.86
64111;DHT22;50401;48.188;11.566;2022-07-10T07:23:25;18.52;71.34
64111;DHT22;50401;48.188;11.566;2022-07-10T07:25:50;18.55;71.22
64111;DHT22;50401;48.188;11.566;2022-07-10T07:28:17;21.07;64.66
64111;DHT22;50401;48.188;11.566;2022-07-10T07:30:44;23.19;58.07
64111;DHT22;50401;48.188;11.566;2022-07-10T07:33:09;24.09;55.33
64111;DHT22;50401;48.188;11.566;2022-07-10T07:35:35;23.38;55.85
64111;DHT22;50401;48.188;11.566;2022-07-10T07:38:01;23.85;54.33
64111;DHT22;50401;48.188;11.566;2022-07-10T07:40:27;24.39;53.17
64111;DHT22;50401;48.188;11.566;2022-07-10T07:42:53;24.67;52.16
64111;DHT22;50401;48.188;11.566;2022-07-10T07:45:19;26.36;48.53
64111;DHT22;50401;48.188;11.566;2022-07-10T07:47:47;26.16;48.31
64111;DHT22;50401;48.188;11.566;2022-07-10T07:50:14;25.26;50.05
64111;DHT22;50401;48.188;11.566;2022-07-10T07:52:40;24.69;51.38
64111;DHT22;50401;48.188;11.566;2022-07-10T07:55:06;23.58;53.87
64111;DHT22;50401;48.188;11.566;2022-07-10T07:57:31;23.77;54.10
64111;DHT22;50401;48.188;11.566;2022-07-10T07:59:57;25.74;49.14
64111;DHT22;50401;48.188;11.566;2022-07-10T08:02:22;27.49;45.32
64111;DHT22;50401;48.188;11.566;2022-07-10T08:04:48;28.17;43.66
64111;DHT22;50401;48.188;11.566;2022-07-10T08:07:13;29.32;40.62
64111;DHT22;50401;48.188;11.566;2022-07-10T08:09:39;30.32;38.27
64111;DHT22;50401;48.188;11.566;2022-07-10T08:12:04;30.12;38.04
64111;DHT22;50401;48.188;11.566;2022-07-10T08:14:30;27.70;42.26
64111;DHT22;50401;48.188;11.566;2022-07-10T08:16:55;26.04;45.19
64111;DHT22;50401;48.188;11.566;2022-07-10T08:19:21;25.02;47.30
64111;DHT22;50401;48.188;11.566;2022-07-10T08:21:46;26.16;45.22
64111;DHT22;50401;48.188;11.566;2022-07-10T08:24:12;25.50;46.29
64111;DHT22;50401;48.188;11.566;2022-07-10T08:26:37;24.43;48.93
64111;DHT22;50401;48.188;11.566;2022-07-10T08:29:02;24.04;49.29
64111;DHT22;50401;48.188;11.566;2022-07-10T08:31:28;23.50;50.22
64111;DHT22;50401;48.188;11.566;2022-07-10T08:33:53;23.51;50.60
64111;DHT22;50401;48.188;11.566;2022-07-10T08:36:18;23.01;51.28
64111;DHT22;50401;48.188;11.566;2022-07-10T08:38:44;22.53;52.11
64111;DHT22;50401;48.188;11.566;2022-07-10T08:41:10;22.42;52.56
64111;DHT22;50401;48.188;11.566;2022-07-10T08:43:36;24.13;49.22
64111;DHT22;50401;48.188;11.566;2022-07-10T08:46:02;24.61;47.82
64111;DHT22;50401;48.188;11.566;2022-07-10T08:48:32;23.47;50.63
64111;DHT22;50401;48.188;11.566;2022-07-10T08:51:02;22.92;51.97
64111;DHT22;50401;48.188;11.566;2022-07-10T08:53:31;22.88;52.05
64111;DHT22;50401;48.188;11.566;2022-07-10T08:55:59;22.59;52.20
64111;DHT22;50401;48.188;11.566;2022-07-10T08:58:27;23.45;50.39
64111;DHT22;50401;48.188;11.566;2022-07-10T09:00:53;24.10;49.20
64111;DHT22;50401;48.188;11.566;2022-07-10T09:03:19;24.71;48.04
64111;DHT22;50401;48.188;11.566;2022-07-10T09:05:44;24.19;48.42
64111;DHT22;50401;48.188;11.566;2022-07-10T09:08:28;24.50;46.86
64111;DHT22;50401;48.188;11.566;2022-07-10T09:11:17;24.10;47.56
64111;DHT22;50401;48.188;11.566;2022-07-10T09:13:53;24.89;45.97
64111;DHT22;50401;48.188;11.566;2022-07-10T09:16:23;25.23;45.07
64111;DHT22;50401;48.188;11.566;2022-07-10T09:18:48;25.41;44.11
64111;DHT22;50401;48.188;11.566;2022-07-10T09:21:13;25.68;43.92
64111;DHT22;50401;48.188;11.566;2022-07-10T09:23:39;24.17;46.19
64111;DHT22;50401;48.188;11.566;2022-07-10T09:26:05;24.17;45.09
64111;DHT22;50401;48.188;11.566;2022-07-10T09:28:30;24.75;43.60
64111;DHT22;50401;48.188;11.566;2022-07-10T09:30:56;25.23;43.13
64111;DHT22;50401;48.188;11.566;2022-07-10T09:33:23;25.72;42.71
64111;DHT22;50401;48.188;11.566;2022-07-10T09:41:30;25.43;42.63
64111;DHT22;50401;48.188;11.566;2022-07-10T09:44:00;25.81;41.68
64111;DHT22;50401;48.188;11.566;2022-07-10T09:46:38;25.78;42.16
64111;DHT22;50401;48.188;11.566;2022-07-10T09:49:12;25.27;42.61
64111;DHT22;50401;48.188;11.566;2022-07-10T09:51:42;24.69;43.09
64111;DHT22;50401;48.188;11.566;2022-07-10T09:54:09;24.23;44.25
64111;DHT22;50401;48.188;11.566;2022-07-10T09:56:47;24.12;44.49
64111;DHT22;50401;48.188;11.566;2022-07-10T09:59:18;23.18;46.02
64111;DHT22;50401;48.188;11.566;2022-07-10T10:01:52;24.01;44.46
64111;DHT22;50401;48.188;11.566;2022-07-10T10:04:22;23.67;44.12
64111;DHT22;50401;48.188;11.566;2022-07-10T10:07:00;23.32;43.78
64111;DHT22;50401;48.188;11.566;2022-07-10T10:09:38;23.56;44.34
64111;DHT22;50401;48.188;11.566;2022-07-10T10:12:15;24.04;42.75
64111;DHT22;50401;48.188;11.566;2022-07-10T10:14:41;24.27;43.39
64111;DHT22;50401;48.188;11.566;2022-07-10T10:17:07;24.22;43.96
64111;DHT22;50401;48.188;11.566;2022-07-10T10:19:33;24.06;43.83
64111;DHT22;50401;48.188;11.566;2022-07-10T10:22:18;24.05;42.72
64111;DHT22;50401;48.188;11.566;2022-07-10T10:24:44;23.60;43.24
64111;DHT22;50401;48.188;11.566;2022-07-10T10:27:10;23.51;43.56
64111;DHT22;50401;48.188;11.566;2022-07-10T10:29:37;23.68;43.11
64111;DHT22;50401;48.188;11.566;2022-07-10T10:32:04;23.91;43.22
64111;DHT22;50401;48.188;11.566;2022-07-10T10:34:43;23.71;43.19
64111;DHT22;50401;48.188;11.566;2022-07-10T10:39:54;23.22;44.51
64111;DHT22;50401;48.188;11.566;2022-07-10T10:42:37;23.01;45.28
64111;DHT22;50401;48.188;11.566;2022-07-10T10:53:13;23.13;43.44
64111;DHT22;50401;48.188;11.566;2022-07-10T10:55:40;23.24;43.85
64111;DHT22;50401;48.188;11.566;2022-07-10T10:58:15;22.99;43.82
64111;DHT22;50401;48.188;11.566;2022-07-10T11:00:41;22.92;43.40
64111;DHT22;50401;48.188;11.566;2022-07-10T11:03:14;22.99;43.41
64111;DHT22;50401;48.188;11.566;2022-07-10T11:05:41;23.04;43.18
64111;DHT22;50401;48.188;11.566;2022-07-10T11:08:07;23.01;44.20
64111;DHT22;50401;48.188;11.566;2022-07-10T11:13:16;23.05;43.76
64111;DHT22;50401;48.188;11.566;2022-07-10T11:15:46;22.92;44.06
64111;DHT22;50401;48.188;11.566;2022-07-10T11:18:15;22.80;44.84
64111;DHT22;50401;48.188;11.566;2022-07-10T11:20:45;22.74;44.15
64111;DHT22;50401;48.188;11.566;2022-07-10T11:26:11;22.86;43.58
64111;DHT22;50401;48.188;11.566;2022-07-10T11:28:46;22.92;43.01
64111;DHT22;50401;48.188;11.566;2022-07-10T11:31:14;22.91;43.35
64111;DHT22;50401;48.188;11.566;2022-07-10T11:33:45;23.05;43.98
64111;DHT22;50401;48.188;11.566;2022-07-10T11:36:16;23.09;44.30
64111;DHT22;50401;48.188;11.566;2022-07-10T11:38:42;23.15;44.34
64111;DHT22;50401;48.188;11.566;2022-07-10T11:41:19;23.09;44.00
64111;DHT22;50401;48.188;11.566;2022-07-10T11:43:53;22.99;44.22
64111;DHT22;50401;48.188;11.566;2022-07-10T11:46:21;22.91;43.86
64111;DHT22;50401;48.188;11.566;2022-07-10T11:48:48;22.74;44.72
64111;DHT22;50401;48.188;11.566;2022-07-10T11:51:28;22.86;43.85
64111;DHT22;50401;48.188;11.566;2022-07-10T11:56:25;23.09;43.08
64111;DHT22;50401;48.188;11.566;2022-07-10T12:01:20;22.78;43.16
64111;DHT22;50401;48.188;11.566;2022-07-10T12:03:53;22.81;43.57
64111;DHT22;50401;48.188;11.566;2022-07-10T12:06:21;23.08;43.35
64111;DHT22;50401;48.188;11.566;2022-07-10T12:08:47;23.22;43.16
64111;DHT22;50401;48.188;11.566;2022-07-10T12:11:17;23.29;43.63
64111;DHT22;50401;48.188;11.566;2022-07-10T12:13:47;22.90;43.46
64111;DHT22;50401;48.188;11.566;2022-07-10T12:16:14;23.32;43.17
64111;DHT22;50401;48.188;11.566;2022-07-10T12:18:42;23.34;42.54
64111;DHT22;50401;48.188;11.566;2022-07-10T12:21:09;23.33;42.68
64111;DHT22;50401;48.188;11.566;2022-07-10T12:23:35;23.27;42.73
64111;DHT22;50401;48.188;11.566;2022-07-10T12:26:04;23.23;43.02
64111;DHT22;50401;48.188;11.566;2022-07-10T12:28:48;23.27;43.12
64111;DHT22;50401;48.188;11.566;2022-07-10T12:31:20;23.30;42.69
64111;DHT22;50401;48.188;11.566;2022-07-10T12:33:50;23.43;42.26
64111;DHT22;50401;48.188;11.566;2022-07-10T12:36:16;23.58;41.88
64111;DHT22;50401;48.188;11.566;2022-07-10T12:38:42;23.65;41.86
64111;DHT22;50401;48.188;11.566;2022-07-10T12:41:11;23.78;42.02
64111;DHT22;50401;48.188;11.566;2022-07-10T12:43:37;23.78;41.05
64111;DHT22;50401;48.188;11.566;2022-07-10T12:49:06;23.71;41.16
64111;DHT22;50401;48.188;11.566;2022-07-10T12:51:34;23.57;41.01
64111;DHT22;50401;48.188;11.566;2022-07-10T12:54:07;23.57;41.41
64111;DHT22;50401;48.188;11.566;2022-07-10T12:56:37;23.68;41.37
64111;DHT22;50401;48.188;11.566;2022-07-10T12:59:13;23.74;41.03
64111;DHT22;50401;48.188;11.566;2022-07-10T13:01:43;23.67;41.11
64111;DHT22;50401;48.188;11.566;2022-07-10T13:04:08;23.77;40.51
64111;DHT22;50401;48.188;11.566;2022-07-10T13:06:35;23.82;40.92
64111;DHT22;50401;48.188;11.566;2022-07-10T13:09:02;23.60;40.96
64111;DHT22;50401;48.188;11.566;2022-07-10T13:11:27;23.61;41.24
64111;DHT22;50401;48.188;11.566;2022-07-10T13:13:53;23.67;40.67
64111;DHT22;50401;48.188;11.566;2022-07-10T13:16:18;23.54;40.76
64111;DHT22;50401;48.188;11.566;2022-07-10T13:18:44;23.53;40.99
64111;DHT22;50401;48.188;11.566;2022-07-10T13:21:10;23.51;40.74
64111;DHT22;50401;48.188;11.566;2022-07-10T13:23:38;23.54;40.74
64111;DHT22;50401;48.188;11.566;2022-07-10T13:26:05;23.70;39.97
64111;DHT22;50401;48.188;11.566;2022-07-10T13:28:33;23.67;40.41
64111;DHT22;50401;48.188;11.566;2022-07-10T13:30:58;23.73;40.73
64111;DHT22;50401;48.188;11.566;2022-07-10T13:33:24;23.68;40.17
64111;DHT22;50401;48.188;11.566;2022-07-10T13:35:50;23.75;39.72
64111;DHT22;50401;48.188;11.566;2022-07-10T13:38:15;23.60;40.10
64111;DHT22;50401;48.188;11.566;2022-07-10T13:40:44;23.57;39.73
64111;DHT22;50401;48.188;11.566;2022-07-10T13:43:11;23.43;40.19
64111;DHT22;50401;48.188;11.566;2022-07-10T13:45:38;23.38;40.20
64111;DHT22;50401;48.188;11.566;2022-07-10T13:48:13;23.05;40.35
64111;DHT22;50401;48.188;11.566;2022-07-10T13:50:40;23.09;40.31
64111;DHT22;50401;48.188;11.566;2022-07-10T13:53:05;23.13;40.46
64111;DHT22;50401;48.188;11.566;2022-07-10T13:55:33;23.09;40.31
64111;DHT22;50401;48.188;11.566;2022-07-10T13:57:58;22.84;40.90
64111;DHT22;50401;48.188;11.566;2022-07-10T14:00:24;22.97;40.49
64111;DHT22;50401;48.188;11.566;2022-07-10T14:02:50;22.94;40.14
64111;DHT22;50401;48.188;11.566;2022-07-10T14:05:15;22.95;40.17
64111;DHT22;50401;48.188;11.566;2022-07-10T14:07:41;22.84;40.62
64111;DHT22;50401;48.188;11.566;2022-07-10T14:10:06;22.87;40.58
64111;DHT22;50401;48.188;11.566;2022-07-10T14:12:32;22.88;40.27
64111;DHT22;50401;48.188;11.566;2022-07-10T14:14:58;22.72;40.14
64111;DHT22;50401;48.188;11.566;2022-07-10T14:17:23;22.72;40.13
64111;DHT22;50401;48.188;11.566;2022-07-10T14:19:50;22.61;41.05
64111;DHT22;50401;48.188;11.566;2022-07-10T14:22:16;22.59;40.41
64111;DHT22;50401;48.188;11.566;2022-07-10T14:24:41;22.54;40.25
64111;DHT22;50401;48.188;11.566;2022-07-10T14:27:07;22.37;41.09
64111;DHT22;50401;48.188;11.566;2022-07-10T14:29:32;22.40;41.04
64111;DHT22;50401;48.188;11.566;2022-07-10T14:31:58;22.52;40.97
64111;DHT22;50401;48.188;11.566;2022-07-10T14:34:23;22.57;40.55
64111;DHT22;50401;48.188;11.566;2022-07-10T14:36:53;22.50;40.68
64111;DHT22;50401;48.188;11.566;2022-07-10T14:39:18;22.60;40.48
64111;DHT22;50401;48.188;11.566;2022-07-10T14:41:43;22.46;40.54
64111;DHT22;50401;48.188;11.566;2022-07-10T14:44:09;22.35;40.08
64111;DHT22;50401;48.188;11.566;2022-07-10T14:46:34;22.37;40.19
64111;DHT22;50401;48.188;11.566;2022-07-10T14:49:00;22.33;40.33
64111;DHT22;50401;48.188;11.566;2022-07-10T14:51:25;22.30;40.21
64111;DHT22;50401;48.188;11.566;2022-07-10T14:53:51;22.22;39.81
64111;DHT22;50401;48.188;11.566;2022-07-10T14:56:17;22.18;40.06
64111;DHT22;50401;48.188;11.566;2022-07-10T14:58:44;22.28;40.22
64111;DHT22;50401;48.188;11.566;2022-07-10T15:01:10;22.23;39.91
64111;DHT22;50401;48.188;11.566;2022-07-10T15:03:35;22.26;39.98
64111;DHT22;50401;48.188;11.566;2022-07-10T15:06:01;22.15;39.87
64111;DHT22;50401;48.188;11.566;2022-07-10T15:08:26;22.13;40.25
64111;DHT22;50401;48.188;11.566;2022-07-10T15:10:51;22.05;40.55
64111;DHT22;50401;48.188;11.566;2022-07-10T15:13:17;22.08;40.23
64111;DHT22;50401;48.188;11.566;2022-07-10T15:15:43;22.16;40.24
64111;DHT22;50401;48.188;11.566;2022-07-10T15:18:09;22.09;40.22
64111;DHT22;50401;48.188;11.566;2022-07-10T15:20:35;22.05;39.78
64111;DHT22;50401;48.188;11.566;2022-07-10T15:23:02;22.01;39.79
64111;DHT22;50401;48.188;11.566;2022-07-10T15:25:28;21.87;40.54
64111;DHT22;50401;48.188;11.566;2022-07-10T15:27:53;21.95;39.40
64111;DHT22;50401;48.188;11.566;2022-07-10T15:30:19;21.94;39.97
64111;DHT22;50401;48.188;11.566;2022-07-10T15:32:45;21.98;39.88
64111;DHT22;50401;48.188;11.566;2022-07-10T15:35:11;21.95;39.91
64111;DHT22;50401;48.188;11.566;2022-07-10T15:37:37;21.97;39.74
64111;DHT22;50401;48.188;11.566;2022-07-10T15:40:03;21.97;39.83
64111;DHT22;50401;48.188;11.566;2022-07-10T15:42:28;21.94;39.76